Time;durP1;ratioP1;P1;durP2;ratioP2;P2;SDS_P1;SDS_P2;PMS_P1;PMS_P2;Temp;Humidity;BMP_temperature;BMP_pressure;BME280_temperature;BME280_humidity;BME280_pressure;Samples;Min_cycle;Max_cycle;Signal;HPM_P1;HPM_P2
2022/05/18 00:01:01;;;;;;;13.80;8.02;;;17.40;99.90;;;;;;5025193;28;20059;-41
2022/05/18 00:03:33;;;;;;;9.07;7.75;;;17.40;99.90;;;;;;5011435;28;20142;-41
2022/05/18 00:06:00;;;;;;;9.30;7.13;;;17.40;99.90;;;;;;5010137;28;20102;-41
2022/05/18 00:08:27;;;;;;;12.93;7.57;;;17.30;99.90;;;;;;4993750;28;20056;-41
2022/05/18 00:10:52;;;;;;;11.43;6.93;;;17.30;99.90;;;;;;5028082;28;20081;-41
2022/05/18 00:13:19;;;;;;;8.13;6.15;;;17.30;99.90;;;;;;5016681;28;20069;-42
2022/05/18 00:15:46;;;;;;;9.40;6.60;;;17.30;99.90;;;;;;5002699;28;20041;-42
2022/05/18 00:18:13;;;;;;;11.02;6.57;;;17.20;99.90;;;;;;4985012;28;20121;-41
2022/05/18 00:20:39;;;;;;;10.23;6.40;;;17.20;99.90;;;;;;5010502;28;20054;-41
2022/05/18 00:23:05;;;;;;;10.15;5.80;;;17.20;99.90;;;;;;5014154;28;20469;-42
2022/05/18 00:25:35;;;;;;;10.23;6.30;;;17.20;99.90;;;;;;5027231;28;20893;-41
2022/05/18 00:28:01;;;;;;;11.45;6.25;;;17.20;99.90;;;;;;5010647;28;20401;-42
2022/05/18 00:30:28;;;;;;;10.65;6.30;;;17.10;99.90;;;;;;5025799;28;20223;-42
2022/05/18 00:32:54;;;;;;;10.40;5.70;;;17.10;99.90;;;;;;5014442;28;20052;-42
2022/05/18 00:35:22;;;;;;;9.57;5.88;;;17.10;99.90;;;;;;5007753;28;20049;-42
2022/05/18 00:37:48;;;;;;;7.97;5.65;;;17.00;99.90;;;;;;4993661;28;20061;-41
2022/05/18 00:40:16;;;;;;;10.38;6.75;;;17.00;99.90;;;;;;5002526;28;20393;-41
2022/05/18 00:42:42;;;;;;;9.70;6.03;;;17.00;99.90;;;;;;5003446;28;20052;-41
2022/05/18 00:45:09;;;;;;;9.20;6.28;;;17.00;99.90;;;;;;5002422;28;20077;-41
2022/05/18 00:47:36;;;;;;;13.52;6.68;;;17.00;99.90;;;;;;4991270;28;20136;-41
2022/05/18 00:50:12;;;;;;;8.30;5.65;;;16.90;99.90;;;;;;5006926;28;20096;-42
2022/05/18 00:52:42;;;;;;;12.13;6.43;;;16.90;99.90;;;;;;5007919;28;20124;-41
2022/05/18 00:55:12;;;;;;;10.13;6.43;;;16.90;99.90;;;;;;5027688;28;20045;-41
2022/05/18 00:57:49;;;;;;;8.00;5.72;;;16.80;99.90;;;;;;5004422;28;20523;-42
2022/05/18 01:00:19;;;;;;;10.55;5.88;;;16.80;99.90;;;;;;5024877;28;20408;-41
2022/05/18 01:02:55;;;;;;;12.98;6.90;;;16.70;99.90;;;;;;5025369;28;20056;-41
2022/05/18 01:05:28;;;;;;;6.47;5.32;;;16.70;99.90;;;;;;5026690;28;20048;-41
2022/05/18 01:07:57;;;;;;;11.27;6.00;;;16.60;99.90;;;;;;5010355;28;21553;-41
2022/05/18 01:10:22;;;;;;;9.52;5.47;;;16.60;99.90;;;;;;5027641;28;20448;-41
2022/05/18 01:12:48;;;;;;;9.63;6.15;;;16.60;99.90;;;;;;5023663;28;20260;-42
2022/05/18 01:15:17;;;;;;;8.60;5.40;;;16.50;99.90;;;;;;5024291;28;20083;-41
2022/05/18 01:17:46;;;;;;;9.77;5.97;;;16.50;99.90;;;;;;5006551;28;20488;-41
2022/05/18 01:20:19;;;;;;;9.82;5.57;;;16.50;99.90;;;;;;5028141;28;20045;-41
2022/05/18 01:22:44;;;;;;;10.55;6.07;;;16.50;99.90;;;;;;5016939;28;20074;-41
2022/05/18 01:25:25;;;;;;;8.98;5.32;;;16.40;99.90;;;;;;5026305;28;20136;-41
2022/05/18 01:27:52;;;;;;;11.93;5.88;;;16.40;99.90;;;;;;5005940;28;20100;-41
2022/05/18 01:30:18;;;;;;;10.43;5.63;;;16.40;99.90;;;;;;5025962;28;20041;-41
2022/05/18 01:32:50;;;;;;;8.88;5.90;;;16.40;99.90;;;;;;5020113;28;20041;-41
2022/05/18 01:35:19;;;;;;;7.55;5.00;;;16.40;99.90;;;;;;5018818;28;20047;-41
2022/05/18 01:37:45;;;;;;;7.68;6.00;;;16.40;99.90;;;;;;5003862;28;20455;-41
2022/05/18 01:40:36;;;;;;;9.95;5.82;;;16.30;99.90;;;;;;5026883;28;20105;-41
2022/05/18 01:43:39;;;;;;;8.57;5.82;;;16.30;99.90;;;;;;5045230;28;20041;-41
2022/05/18 01:46:08;;;;;;;11.75;6.68;;;16.20;99.90;;;;;;5017527;28;20053;-41
2022/05/18 01:48:45;;;;;;;9.95;6.50;;;16.20;99.90;;;;;;5016207;28;20546;-41
2022/05/18 01:51:13;;;;;;;12.23;6.45;;;16.20;99.90;;;;;;5024095;28;20053;-41
2022/05/18 01:53:39;;;;;;;11.82;6.97;;;16.10;99.90;;;;;;5018316;28;20092;-41
2022/05/18 01:56:08;;;;;;;12.40;6.40;;;16.10;99.90;;;;;;5021238;28;20081;-41
2022/05/18 01:58:34;;;;;;;9.88;6.43;;;16.10;99.90;;;;;;5011696;28;20121;-42
2022/05/18 02:01:02;;;;;;;7.55;6.15;;;16.10;99.90;;;;;;5024487;28;20053;-42
2022/05/18 02:03:31;;;;;;;11.23;6.28;;;16.00;99.90;;;;;;5022995;28;20048;-41
2022/05/18 02:05:57;;;;;;;8.75;6.15;;;16.00;99.90;;;;;;5005584;28;20544;-41
2022/05/18 02:08:23;;;;;;;8.88;6.80;;;16.00;99.90;;;;;;5002009;28;20424;-41
2022/05/18 02:10:49;;;;;;;11.35;6.85;;;16.00;99.90;;;;;;5026394;28;20054;-41
2022/05/18 02:13:16;;;;;;;8.93;6.40;;;16.00;99.90;;;;;;5024988;28;20038;-41
2022/05/18 02:15:42;;;;;;;9.57;6.25;;;16.00;99.90;;;;;;5027503;28;20095;-41
2022/05/18 02:18:08;;;;;;;10.77;6.55;;;16.00;99.90;;;;;;5006057;28;20037;-41
2022/05/18 02:20:34;;;;;;;10.35;7.25;;;15.90;99.90;;;;;;5027385;28;20157;-41
2022/05/18 02:23:01;;;;;;;8.43;6.60;;;15.90;99.90;;;;;;5022831;28;20034;-41
2022/05/18 02:25:27;;;;;;;14.13;6.97;;;15.90;99.90;;;;;;5023239;28;20057;-41
2022/05/18 02:27:54;;;;;;;10.27;6.82;;;15.80;99.90;;;;;;5005119;28;20404;-42
2022/05/18 02:30:21;;;;;;;10.95;6.78;;;15.90;99.90;;;;;;5026896;28;20038;-41
2022/05/18 02:32:46;;;;;;;12.23;6.78;;;15.80;99.90;;;;;;5021941;28;20053;-41
2022/05/18 02:35:13;;;;;;;10.07;6.50;;;15.80;99.90;;;;;;5027010;28;20477;-41
2022/05/18 02:37:39;;;;;;;10.45;6.25;;;15.80;99.90;;;;;;5010172;28;20318;-41
2022/05/18 02:40:06;;;;;;;10.60;6.85;;;15.80;99.90;;;;;;5023924;28;20505;-42
2022/05/18 02:42:32;;;;;;;8.48;6.30;;;15.80;99.90;;;;;;5023149;28;20049;-41
2022/05/18 02:44:58;;;;;;;9.90;6.72;;;15.70;99.90;;;;;;5024981;28;20056;-41
2022/05/18 02:47:24;;;;;;;9.85;6.60;;;15.70;99.90;;;;;;5009549;28;20045;-43
2022/05/18 02:49:51;;;;;;;7.05;5.72;;;15.70;99.90;;;;;;5021372;28;20046;-41
2022/05/18 02:52:17;;;;;;;11.57;6.22;;;15.70;99.90;;;;;;5023215;28;20108;-41
2022/05/18 02:57:27;;;;;;;9.75;7.30;;;15.60;99.90;;;;;;5005641;28;20470;-41
2022/05/18 02:59:54;;;;;;;12.45;7.75;;;15.60;99.90;;;;;;5023585;28;20163;-41
2022/05/18 03:02:20;;;;;;;9.45;7.18;;;15.60;99.90;;;;;;5021895;28;20061;-41
2022/05/18 03:04:45;;;;;;;9.70;7.00;;;15.50;99.90;;;;;;5023878;28;20052;-41
2022/05/18 03:07:11;;;;;;;10.15;7.57;;;15.50;99.90;;;;;;5007813;28;20053;-41
2022/05/18 03:09:37;;;;;;;9.30;7.00;;;15.50;99.90;;;;;;5023156;28;20057;-41
2022/05/18 03:12:04;;;;;;;10.52;7.10;;;15.50;99.90;;;;;;5021397;28;20061;-43
2022/05/18 03:14:30;;;;;;;13.57;7.45;;;15.50;99.90;;;;;;5023847;28;20046;-41
2022/05/18 03:16:55;;;;;;;10.35;6.82;;;15.50;99.90;;;;;;5009335;28;20052;-41
2022/05/18 03:19:23;;;;;;;14.15;7.38;;;15.50;99.90;;;;;;5024437;28;20080;-41
2022/05/18 03:24:33;;;;;;;9.15;6.35;;;15.40;99.90;;;;;;5017282;28;20168;-41
2022/05/18 03:26:58;;;;;;;8.75;7.20;;;15.40;99.90;;;;;;5006165;28;20533;-41
2022/05/18 03:29:24;;;;;;;8.35;6.38;;;15.30;99.90;;;;;;5019236;28;20061;-41
2022/05/18 03:31:50;;;;;;;12.13;7.57;;;15.40;99.90;;;;;;5022316;28;20484;-41
2022/05/18 03:34:16;;;;;;;9.02;7.20;;;15.30;99.90;;;;;;5018994;28;20137;-41
2022/05/18 03:36:41;;;;;;;9.88;7.13;;;15.30;99.90;;;;;;5006618;28;20033;-42
2022/05/18 03:39:08;;;;;;;12.13;7.18;;;15.30;99.90;;;;;;5020608;28;20049;-41
2022/05/18 03:41:36;;;;;;;11.35;7.95;;;15.20;99.90;;;;;;5024093;28;20053;-41
2022/05/18 03:44:07;;;;;;;9.98;7.03;;;15.20;99.90;;;;;;5019010;28;20046;-42
2022/05/18 03:46:33;;;;;;;11.38;7.80;;;15.20;99.90;;;;;;5010067;28;20045;-41
2022/05/18 03:48:59;;;;;;;8.70;6.00;;;15.20;99.90;;;;;;5017631;28;20053;-41
2022/05/18 03:51:26;;;;;;;10.48;5.95;;;15.20;99.90;;;;;;5024785;28;20054;-41
2022/05/18 03:53:52;;;;;;;10.00;6.80;;;15.10;99.90;;;;;;5019877;28;20145;-41
2022/05/18 03:56:18;;;;;;;11.63;6.28;;;15.10;99.90;;;;;;5010353;28;20152;-41
2022/05/18 03:58:44;;;;;;;9.32;5.82;;;15.10;99.90;;;;;;5018395;28;20045;-41
2022/05/18 04:01:10;;;;;;;10.45;6.35;;;15.10;99.90;;;;;;5025863;28;20076;-42
2022/05/18 04:03:39;;;;;;;8.88;6.05;;;15.10;99.90;;;;;;5020786;28;20393;-41
2022/05/18 04:06:06;;;;;;;10.82;6.88;;;15.00;99.90;;;;;;5022017;28;20080;-41
2022/05/18 04:08:31;;;;;;;8.80;6.45;;;15.00;99.90;;;;;;5012787;28;20100;-41
2022/05/18 04:10:57;;;;;;;11.32;7.40;;;15.00;99.90;;;;;;5026480;28;20054;-42
2022/05/18 04:13:26;;;;;;;8.98;7.05;;;15.00;99.90;;;;;;5020394;28;20049;-41
2022/05/18 04:15:53;;;;;;;9.88;6.93;;;15.10;99.90;;;;;;5023265;28;20103;-41
2022/05/18 04:18:20;;;;;;;11.40;6.88;;;15.00;99.90;;;;;;5006264;28;20501;-41
2022/05/18 04:20:46;;;;;;;12.07;6.70;;;15.00;99.90;;;;;;5029359;28;20060;-42
2022/05/18 04:23:13;;;;;;;10.18;7.22;;;14.90;99.90;;;;;;5025300;28;20041;-41
2022/05/18 04:25:41;;;;;;;12.73;7.20;;;14.90;99.90;;;;;;5026384;28;20153;-41
2022/05/18 04:28:08;;;;;;;11.32;7.60;;;14.90;99.90;;;;;;5010272;28;20068;-41
2022/05/18 04:30:35;;;;;;;10.55;7.32;;;14.90;99.90;;;;;;5027644;28;20049;-41
2022/05/18 04:33:01;;;;;;;10.68;6.82;;;14.90;99.90;;;;;;5025083;28;20041;-41
2022/05/18 04:35:28;;;;;;;9.15;7.25;;;14.90;99.90;;;;;;5027366;28;20041;-42
2022/05/18 04:37:55;;;;;;;11.25;6.63;;;15.00;99.90;;;;;;5012486;28;20100;-41
2022/05/18 04:40:21;;;;;;;11.10;7.53;;;15.00;99.90;;;;;;5026398;28;20093;-41
2022/05/18 04:42:47;;;;;;;13.48;7.78;;;15.00;99.90;;;;;;5025626;28;20045;-41
2022/05/18 04:45:16;;;;;;;10.27;7.05;;;15.00;99.90;;;;;;5027155;28;20038;-41
2022/05/18 04:47:42;;;;;;;14.68;7.70;;;15.00;99.90;;;;;;5009987;28;20041;-41
2022/05/18 04:50:09;;;;;;;11.73;7.38;;;15.00;99.90;;;;;;5022292;28;20103;-41
2022/05/18 04:52:35;;;;;;;13.05;8.55;;;15.00;99.90;;;;;;5024300;28;20049;-41
2022/05/18 04:55:01;;;;;;;10.52;8.02;;;15.10;99.90;;;;;;5027667;28;20485;-41
2022/05/18 04:57:27;;;;;;;11.18;7.95;;;15.10;99.90;;;;;;5009081;28;20711;-41
2022/05/18 04:59:53;;;;;;;11.05;7.93;;;15.10;99.90;;;;;;5026101;28;20080;-41
2022/05/18 05:02:19;;;;;;;11.43;7.93;;;15.20;99.90;;;;;;5021127;28;20507;-41
2022/05/18 05:04:45;;;;;;;12.95;8.45;;;15.10;99.90;;;;;;5027195;28;20319;-41
2022/05/18 05:07:11;;;;;;;13.48;8.07;;;15.20;99.90;;;;;;5010442;28;20057;-41
2022/05/18 05:09:37;;;;;;;11.30;8.05;;;15.40;99.90;;;;;;5022530;28;20352;-41
2022/05/18 05:12:04;;;;;;;13.13;8.30;;;15.40;99.90;;;;;;5024769;28;20052;-42
2022/05/18 05:14:30;;;;;;;14.43;8.88;;;15.40;99.90;;;;;;5024175;28;20103;-41
2022/05/18 05:16:56;;;;;;;9.00;7.80;;;15.50;99.90;;;;;;5008423;28;20132;-42
2022/05/18 05:19:22;;;;;;;13.65;9.05;;;15.60;99.90;;;;;;5026522;28;20607;-41
2022/05/18 05:21:47;;;;;;;12.20;8.75;;;15.60;99.90;;;;;;5013619;28;20042;-42
2022/05/18 05:24:15;;;;;;;15.40;8.18;;;15.70;99.90;;;;;;5022156;28;20493;-41
2022/05/18 05:26:42;;;;;;;13.85;8.93;;;15.80;99.90;;;;;;5011289;28;20495;-41
2022/05/18 05:29:09;;;;;;;13.13;8.68;;;15.80;99.90;;;;;;5023521;28;20057;-41
2022/05/18 05:31:35;;;;;;;13.98;8.63;;;16.00;99.90;;;;;;5018526;28;20049;-41
2022/05/18 05:34:01;;;;;;;16.00;8.40;;;16.00;99.90;;;;;;5023618;28;20045;-41
2022/05/18 05:36:27;;;;;;;12.63;8.75;;;16.10;99.90;;;;;;5009007;28;20037;-42
2022/05/18 05:38:53;;;;;;;15.80;9.13;;;16.20;99.90;;;;;;5019623;28;20965;-41
2022/05/18 05:41:19;;;;;;;12.10;8.50;;;16.30;99.90;;;;;;5024666;28;20045;-42
2022/05/18 05:43:45;;;;;;;16.63;10.00;;;16.40;99.90;;;;;;5020300;28;20180;-44
2022/05/18 05:46:16;;;;;;;11.32;8.90;;;16.50;99.90;;;;;;5015135;28;20045;-44
2022/05/18 05:48:44;;;;;;;14.68;9.02;;;16.70;99.90;;;;;;5019806;28;20049;-42
2022/05/18 05:51:12;;;;;;;13.25;10.05;;;16.70;99.90;;;;;;5027010;28;20056;-42
2022/05/18 05:53:44;;;;;;;13.25;9.27;;;16.80;99.90;;;;;;5017080;28;20037;-41
2022/05/18 05:56:12;;;;;;;17.27;11.77;;;16.90;99.90;;;;;;5016130;28;20448;-42
2022/05/18 05:58:38;;;;;;;15.13;9.77;;;17.10;99.90;;;;;;5016795;28;20037;-41
2022/05/18 06:01:06;;;;;;;14.30;9.57;;;17.10;99.90;;;;;;5026969;28;20057;-41
2022/05/18 06:03:33;;;;;;;16.05;10.65;;;17.30;99.90;;;;;;5019023;28;20038;-42
2022/05/18 06:06:00;;;;;;;12.48;9.70;;;17.40;99.90;;;;;;5026383;28;20046;-42
2022/05/18 06:08:26;;;;;;;14.57;9.93;;;17.40;99.90;;;;;;5007440;28;20049;-42
2022/05/18 06:10:52;;;;;;;16.20;10.35;;;17.50;99.90;;;;;;5016114;28;20037;-42
2022/05/18 06:13:18;;;;;;;13.43;9.93;;;17.60;99.90;;;;;;5014042;28;20103;-41
2022/05/18 06:15:44;;;;;;;13.80;11.05;;;17.70;99.90;;;;;;5015828;28;20511;-43
2022/05/18 06:18:10;;;;;;;20.27;12.10;;;17.80;99.90;;;;;;5003826;28;20049;-42
2022/05/18 06:20:36;;;;;;;14.23;10.48;;;17.90;99.90;;;;;;5022003;28;20102;-42
2022/05/18 06:23:06;;;;;;;16.92;10.10;;;17.90;99.90;;;;;;5018497;28;20489;-42
2022/05/18 06:25:32;;;;;;;13.98;10.60;;;18.00;99.90;;;;;;5021207;28;20037;-42
2022/05/18 06:27:58;;;;;;;14.35;10.80;;;18.10;99.90;;;;;;5003702;28;20196;-42
2022/05/18 06:30:24;;;;;;;24.90;13.95;;;18.20;99.90;;;;;;5021178;28;20128;-42
2022/05/18 06:32:50;;;;;;;18.75;12.13;;;18.30;99.90;;;;;;5017429;28;20042;-42
2022/05/18 06:35:15;;;;;;;16.75;11.73;;;18.40;99.90;;;;;;5015283;28;20099;-42
2022/05/18 06:37:41;;;;;;;14.05;10.48;;;18.40;99.90;;;;;;5004053;28;20049;-42
2022/05/18 06:40:09;;;;;;;15.75;10.63;;;18.50;99.90;;;;;;5019280;28;20508;-42
2022/05/18 06:42:35;;;;;;;19.05;11.82;;;18.60;99.90;;;;;;4987454;28;20508;-42
2022/05/18 06:45:03;;;;;;;19.02;12.75;;;18.70;99.90;;;;;;4990893;28;20049;-42
2022/05/18 06:47:30;;;;;;;18.98;13.85;;;18.80;99.90;;;;;;4968557;28;20485;-42
2022/05/18 06:49:55;;;;;;;16.65;12.07;;;18.90;99.90;;;;;;4987297;28;20521;-42
2022/05/18 06:52:22;;;;;;;26.83;16.75;;;19.00;99.90;;;;;;4984106;28;20359;-43
2022/05/18 06:54:48;;;;;;;23.45;16.85;;;19.10;99.90;;;;;;4987880;28;20123;-42
2022/05/18 06:57:14;;;;;;;22.08;15.10;;;19.20;99.90;;;;;;4970184;28;20124;-43
2022/05/18 06:59:39;;;;;;;18.95;13.82;;;19.30;99.90;;;;;;4994359;28;20562;-43
2022/05/18 07:02:06;;;;;;;18.40;13.43;;;19.40;99.90;;;;;;4983447;28;20066;-42
2022/05/18 07:04:32;;;;;;;17.67;13.18;;;19.40;99.90;;;;;;4983878;28;20058;-42
2022/05/18 07:07:00;;;;;;;22.17;14.57;;;19.50;99.90;;;;;;4969288;28;20441;-42
2022/05/18 07:09:27;;;;;;;20.90;14.68;;;19.60;99.90;;;;;;4987143;28;20127;-43
2022/05/18 07:11:53;;;;;;;23.10;14.13;;;19.60;99.90;;;;;;4985456;28;20120;-42
2022/05/18 07:14:22;;;;;;;23.17;13.93;;;19.70;99.90;;;;;;4985776;28;20057;-42
2022/05/18 07:16:48;;;;;;;18.40;13.88;;;19.80;99.90;;;;;;4972141;28;20046;-43
2022/05/18 07:19:15;;;;;;;22.90;16.38;;;20.00;99.90;;;;;;4983710;28;20050;-43
2022/05/18 07:21:41;;;;;;;25.08;15.80;;;20.00;99.90;;;;;;4988090;28;20058;-42
2022/05/18 07:24:07;;;;;;;19.13;14.13;;;20.10;99.90;;;;;;4983484;28;20053;-43
2022/05/18 07:26:34;;;;;;;18.65;12.27;;;20.20;99.90;;;;;;4972695;28;20136;-43
2022/05/18 07:29:01;;;;;;;17.58;12.85;;;20.30;99.90;;;;;;4983400;28;20143;-43
2022/05/18 07:31:29;;;;;;;18.35;13.57;;;20.40;99.90;;;;;;4986136;28;21156;-43
2022/05/18 07:33:56;;;;;;;23.08;16.95;;;20.40;99.90;;;;;;4985157;28;20046;-43
2022/05/18 07:36:22;;;;;;;21.75;14.48;;;20.50;99.90;;;;;;4974380;28;20404;-43
2022/05/18 07:38:48;;;;;;;22.15;13.63;;;20.60;99.90;;;;;;4987217;28;20041;-43
2022/05/18 07:41:15;;;;;;;18.05;13.40;;;20.70;99.90;;;;;;4984731;28;20053;-43
2022/05/18 07:43:41;;;;;;;20.27;14.25;;;20.80;99.90;;;;;;4990087;28;20128;-43
2022/05/18 07:46:08;;;;;;;16.55;11.82;;;20.90;99.90;;;;;;4985769;28;20104;-43
2022/05/18 07:48:35;;;;;;;17.85;11.65;;;20.90;99.90;;;;;;4980055;28;20100;-43
2022/05/18 07:51:02;;;;;;;20.00;12.23;;;21.00;99.90;;;;;;4991472;28;20100;-43
2022/05/18 07:53:27;;;;;;;15.43;10.07;;;21.10;99.90;;;;;;4990348;28;20542;-43
2022/05/18 07:55:53;;;;;;;15.27;10.18;;;21.10;99.90;;;;;;4989882;28;20049;-43
2022/05/18 07:58:21;;;;;;;17.38;10.70;;;21.20;99.90;;;;;;4972062;28;21407;-43
2022/05/18 08:00:47;;;;;;;14.63;9.95;;;21.30;99.90;;;;;;4988377;28;21429;-43
2022/05/18 08:03:16;;;;;;;11.20;9.10;;;21.40;99.90;;;;;;4987344;28;20496;-43
2022/05/18 08:05:43;;;;;;;12.60;8.88;;;21.50;99.90;;;;;;4986180;28;20049;-43
2022/05/18 08:08:12;;;;;;;12.82;8.40;;;21.50;99.90;;;;;;4977140;28;20557;-43
2022/05/18 08:16:09;;;;;;;17.40;10.60;;;21.70;99.90;;;;;;4984996;28;20088;-44
2022/05/18 08:18:35;;;;;;;16.55;9.25;;;21.70;99.90;;;;;;4977797;28;20076;-43
2022/05/18 08:21:00;;;;;;;12.98;8.55;;;21.80;99.90;;;;;;4987425;28;20054;-43
2022/05/18 08:23:27;;;;;;;12.63;9.52;;;21.80;99.90;;;;;;4984815;28;20133;-43
2022/05/18 08:25:55;;;;;;;14.60;8.85;;;21.90;99.90;;;;;;4988816;28;20054;-43
2022/05/18 08:28:21;;;;;;;12.77;7.53;;;21.90;99.90;;;;;;4970272;28;20054;-42
2022/05/18 08:30:46;;;;;;;12.52;7.15;;;22.00;99.90;;;;;;4986486;28;20057;-42
2022/05/18 08:33:12;;;;;;;13.18;6.50;;;22.10;99.90;;;;;;4986519;28;20050;-42
2022/05/18 08:35:43;;;;;;;9.73;6.43;;;22.10;99.90;;;;;;4987380;28;20552;-42
2022/05/18 08:38:10;;;;;;;11.38;6.35;;;22.20;99.90;;;;;;4972049;28;20057;-42
2022/05/18 08:40:38;;;;;;;7.72;6.03;;;22.20;99.90;;;;;;4987962;28;20509;-42
2022/05/18 08:43:10;;;;;;;12.60;6.18;;;22.30;99.90;;;;;;4987375;28;20104;-42
2022/05/18 08:45:46;;;;;;;7.55;4.90;;;22.10;99.90;;;;;;4986094;28;20061;-42
2022/05/18 08:48:42;;;;;;;6.50;5.20;;;22.30;99.90;;;;;;4972762;28;20165;-42
2022/05/18 08:51:25;;;;;;;9.75;5.32;;;22.40;99.90;;;;;;4971157;28;20062;-42
2022/05/18 08:54:03;;;;;;;8.07;5.50;;;22.50;99.90;;;;;;4985397;28;20493;-42
2022/05/18 08:56:33;;;;;;;10.82;6.20;;;22.50;99.90;;;;;;4973242;28;20567;-42
2022/05/18 08:59:02;;;;;;;10.70;6.40;;;22.60;99.90;;;;;;4984119;28;20052;-42
2022/05/18 09:01:42;;;;;;;12.25;6.50;;;22.60;99.90;;;;;;4986108;28;20061;-42
2022/05/18 09:04:16;;;;;;;8.80;5.53;;;22.70;99.90;;;;;;4984460;28;20050;-42
2022/05/18 09:06:56;;;;;;;9.57;6.00;;;22.70;99.90;;;;;;4974430;28;20076;-42
2022/05/18 09:10:16;;;;;;;9.73;5.70;;;22.80;99.90;;;;;;4986644;28;20266;-42
2022/05/18 09:12:47;;;;;;;12.05;6.68;;;22.90;99.90;;;;;;4988097;28;20046;-42
2022/05/18 09:15:15;;;;;;;;;;;23.00;99.90;;;;;;4988820;28;20046;-42
2022/05/18 09:18:01;;;;;;;8.43;6.20;;;23.00;99.90;;;;;;4971906;28;19937;-42
2022/05/18 09:20:35;;;;;;;10.50;6.10;;;23.00;99.90;;;;;;4990436;28;20511;-42
2022/05/18 09:23:40;;;;;;;12.20;7.13;;;23.10;99.90;;;;;;4984538;28;20049;-42
2022/05/18 09:26:24;;;;;;;8.40;6.35;;;23.20;99.90;;;;;;4985863;28;20046;-42
2022/05/18 09:29:31;;;;;;;12.38;7.38;;;23.20;99.90;;;;;;4981934;28;20375;-42
2022/05/18 09:32:09;;;;;;;8.98;6.57;;;23.30;99.90;;;;;;4984209;28;20073;-42
2022/05/18 09:34:49;;;;;;;10.05;6.32;;;23.40;99.90;;;;;;4986379;28;20046;-42
2022/05/18 09:37:36;;;;;;;10.57;7.28;;;23.50;99.90;;;;;;4970656;28;20060;-42
2022/05/18 09:40:06;;;;;;;10.73;7.55;;;23.60;99.90;;;;;;4987163;28;20803;-42
2022/05/18 09:42:37;;;;;;;10.43;6.57;;;23.60;99.90;;;;;;4983948;28;20046;-42
2022/05/18 09:45:14;;;;;;;12.30;7.82;;;23.60;99.90;;;;;;4987029;28;20073;-42
2022/05/18 09:47:46;;;;;;;13.88;7.13;;;23.70;99.90;;;;;;4969561;28;21836;-43
2022/05/18 09:50:13;;;;;;;11.10;6.88;;;23.80;99.90;;;;;;4989037;28;20058;-42
2022/05/18 09:52:40;;;;;;;11.30;6.43;;;23.80;99.90;;;;;;4983945;28;20054;-42
2022/05/18 09:55:09;;;;;;;9.10;6.78;;;23.80;99.90;;;;;;4985253;28;20536;-42
2022/05/18 09:57:47;;;;;;;12.38;7.30;;;23.80;99.90;;;;;;4968838;28;20219;-42
2022/05/18 10:00:23;;;;;;;9.38;7.03;;;23.90;99.90;;;;;;4990002;28;20045;-42
2022/05/18 10:07:27;;;;;;;12.18;8.40;;;24.00;99.90;;;;;;4987334;28;20092;-43
2022/05/18 10:08:43;;;;;;;13.40;9.23;;;24.10;99.90;;;;;;4979835;28;20080;-42
2022/05/18 10:11:15;;;;;;;14.55;9.52;;;24.20;99.90;;;;;;4988384;28;20057;-43
2022/05/18 10:13:52;;;;;;;15.23;9.68;;;24.20;99.90;;;;;;4983867;28;20060;-42
2022/05/18 10:16:28;;;;;;;15.43;10.25;;;24.30;99.90;;;;;;4976816;28;20050;-42
2022/05/18 10:18:57;;;;;;;15.95;10.23;;;24.30;99.90;;;;;;4984427;28;20104;-44
2022/05/18 10:21:59;;;;;;;16.92;11.43;;;24.30;99.90;;;;;;4987604;28;21499;-44
2022/05/18 10:24:29;;;;;;;21.00;12.00;;;24.40;99.90;;;;;;4984921;28;20543;-41
2022/05/18 10:27:13;;;;;;;14.77;10.52;;;24.40;99.90;;;;;;4972726;28;20057;-42
2022/05/18 10:29:39;;;;;;;17.38;11.63;;;24.40;99.90;;;;;;4985764;28;20081;-45
2022/05/18 10:32:11;;;;;;;14.57;10.27;;;24.40;99.90;;;;;;4981560;28;20050;-43
2022/05/18 10:34:48;;;;;;;14.48;9.85;;;24.50;99.90;;;;;;4984661;28;20067;-43
2022/05/18 10:37:30;;;;;;;15.43;10.43;;;24.50;99.90;;;;;;4969540;28;20078;-43
2022/05/18 10:39:59;;;;;;;14.00;9.70;;;24.60;99.90;;;;;;4986719;28;20052;-43
2022/05/18 10:42:31;;;;;;;11.00;8.95;;;24.60;99.90;;;;;;4982428;28;20153;-43
2022/05/18 10:45:01;;;;;;;14.05;10.20;;;24.60;99.90;;;;;;4986049;28;20401;-43
2022/05/18 10:47:34;;;;;;;13.45;10.45;;;24.70;99.90;;;;;;4970303;28;20046;-43
2022/05/18 10:50:25;;;;;;;11.93;9.00;;;24.80;99.90;;;;;;4984360;28;20982;-43
2022/05/18 10:52:53;;;;;;;;;;;24.80;99.90;;;;;;4986952;28;20460;-43
2022/05/18 10:55:23;;;;;;;14.18;9.82;;;24.90;99.90;;;;;;4986608;28;19929;-43
2022/05/18 10:58:09;;;;;;;13.63;9.95;;;24.90;99.90;;;;;;4966754;28;20563;-43
2022/05/18 11:00:55;;;;;;;15.02;10.00;;;25.00;99.90;;;;;;4986085;28;20133;-43
2022/05/18 11:03:57;;;;;;;12.90;9.27;;;25.10;99.90;;;;;;4985927;28;20038;-43
2022/05/18 11:06:34;;;;;;;13.88;8.23;;;25.10;99.90;;;;;;4974400;28;20060;-43
2022/05/18 11:09:03;;;;;;;13.00;8.95;;;25.20;99.90;;;;;;4983567;28;20049;-42
2022/05/18 11:11:40;;;;;;;14.88;10.27;;;25.30;99.90;;;;;;4988995;28;21344;-43
2022/05/18 11:14:26;;;;;;;15.82;9.68;;;25.30;99.90;;;;;;4985687;28;20037;-43
2022/05/18 11:17:15;;;;;;;12.93;9.60;;;25.40;99.90;;;;;;4971135;28;20057;-43
2022/05/18 11:20:06;;;;;;;17.60;9.48;;;25.40;99.90;;;;;;4990848;28;20111;-43
2022/05/18 11:22:53;;;;;;;14.65;8.70;;;25.50;99.90;;;;;;4986506;28;20052;-43
2022/05/18 11:25:37;;;;;;;16.25;10.48;;;25.60;99.90;;;;;;4990312;28;20107;-43
2022/05/18 11:28:13;;;;;;;13.40;9.52;;;25.60;99.90;;;;;;4972518;28;20054;-43
2022/05/18 11:31:03;;;;;;;11.93;9.60;;;25.70;99.90;;;;;;4988559;28;20061;-43
2022/05/18 11:33:32;;;;;;;16.08;10.55;;;25.70;99.90;;;;;;4990467;28;20103;-43
2022/05/18 11:36:37;;;;;;;14.63;9.40;;;25.70;99.90;;;;;;4988535;28;20045;-43
2022/05/18 11:39:14;;;;;;;15.15;8.15;;;25.70;99.90;;;;;;4984338;28;20061;-43
2022/05/18 11:41:52;;;;;;;13.75;9.38;;;25.70;99.90;;;;;;4988040;28;20056;-43
2022/05/18 11:44:34;;;;;;;13.13;9.15;;;25.80;99.90;;;;;;4987788;28;20046;-43
2022/05/18 11:47:11;;;;;;;15.55;9.98;;;25.90;99.90;;;;;;4970021;28;20061;-43
2022/05/18 11:49:43;;;;;;;14.68;10.38;;;26.00;99.90;;;;;;4965116;28;20643;-44
2022/05/18 11:52:19;;;;;;;15.70;11.00;;;26.00;99.90;;;;;;4967447;28;20447;-43
2022/05/18 11:54:56;;;;;;;14.30;10.70;;;26.10;99.90;;;;;;4987255;28;20115;-43
2022/05/18 11:57:35;;;;;;;16.63;10.80;;;26.20;99.90;;;;;;4971708;28;20568;-43
2022/05/18 12:00:11;;;;;;;15.40;9.35;;;26.20;99.90;;;;;;4990715;28;20502;-43
2022/05/18 12:02:55;;;;;;;10.25;7.47;;;26.30;99.90;;;;;;4988551;28;20084;-43
2022/05/18 12:05:51;;;;;;;15.32;9.82;;;26.50;99.90;;;;;;4990818;28;20056;-44
2022/05/18 12:08:31;;;;;;;11.20;8.15;;;26.60;99.90;;;;;;4973302;28;20049;-43
2022/05/18 12:11:28;;;;;;;18.65;10.75;;;26.70;99.90;;;;;;4990656;28;20054;-44
2022/05/18 12:14:12;;;;;;;15.02;9.40;;;26.80;99.90;;;;;;4985959;28;20057;-43
2022/05/18 12:16:51;;;;;;;14.05;9.00;;;26.90;99.90;;;;;;4977850;28;20089;-43
2022/05/18 12:19:30;;;;;;;14.30;9.02;;;27.00;99.90;;;;;;4991552;28;20419;-43
2022/05/18 12:22:00;;;;;;;10.48;7.85;;;27.10;99.90;;;;;;5019699;28;20065;-43
2022/05/18 12:24:28;;;;;;;11.55;6.63;;;27.20;99.90;;;;;;4988509;28;20522;-43
2022/05/18 12:26:55;;;;;;;13.38;9.20;;;27.30;99.90;;;;;;4975721;28;20548;-43
2022/05/18 12:29:24;;;;;;;11.98;8.32;;;27.40;99.90;;;;;;4985319;28;20563;-43
2022/05/18 12:31:53;;;;;;;11.60;8.25;;;27.40;99.90;;;;;;4985870;28;20061;-43
2022/05/18 12:34:33;;;;;;;14.75;9.52;;;27.40;99.90;;;;;;4987811;28;20475;-43
2022/05/18 12:37:23;;;;;;;14.95;9.43;;;27.40;99.90;;;;;;4974513;28;20053;-43
2022/05/18 12:40:13;;;;;;;13.77;9.45;;;27.40;99.90;;;;;;4989046;28;20046;-43
2022/05/18 12:42:47;;;;;;;17.08;10.82;;;27.30;99.90;;;;;;4985076;28;20045;-43
2022/05/18 12:45:39;;;;;;;14.52;11.10;;;27.30;99.90;;;;;;4987004;28;20531;-43
2022/05/18 12:48:23;;;;;;;14.15;9.95;;;27.10;99.90;;;;;;4976295;28;20572;-43
2022/05/18 12:51:05;;;;;;;12.82;9.85;;;27.10;99.90;;;;;;4987720;28;20049;-43
2022/05/18 12:54:11;;;;;;;15.63;10.80;;;27.00;99.90;;;;;;4987724;28;20294;-43
2022/05/18 12:56:36;;;;;;;17.45;11.02;;;27.00;99.90;;;;;;4974871;28;20046;-43
2022/05/18 12:59:15;;;;;;;14.25;10.25;;;26.90;99.90;;;;;;4987283;28;20061;-43
2022/05/18 13:01:43;;;;;;;17.75;11.93;;;26.90;99.90;;;;;;4987823;28;20377;-43
2022/05/18 13:04:09;;;;;;;19.10;12.50;;;26.90;99.90;;;;;;4986890;28;20049;-43
2022/05/18 13:07:00;;;;;;;18.58;13.98;;;26.90;99.90;;;;;;4974983;28;20504;-43
2022/05/18 13:09:33;;;;;;;;;;;26.80;99.90;;;;;;4988893;28;20053;-44
2022/05/18 13:12:23;;;;;;;23.60;15.60;;;26.70;99.90;;;;;;4989006;28;20396;-43